Time;durP1;ratioP1;P1;durP2;ratioP2;P2;SDS_P1;SDS_P2;PMS_P1;PMS_P2;Temp;Humidity;BMP_temperature;BMP_pressure;BME280_temperature;BME280_humidity;BME280_pressure;Samples;Min_cycle;Max_cycle;Signal;HPM_P1;HPM_P2
2021/07/04 00:00:35;;;;;;;12.30;7.50;;;19.40;99.90;;;;;;5080608;28;20559;-85
2021/07/04 00:03:03;;;;;;;13.53;8.00;;;19.40;99.90;;;;;;5080426;28;20483;-85
2021/07/04 00:05:33;;;;;;;11.80;7.63;;;19.40;99.90;;;;;;5110010;22;20503;-82
2021/07/04 00:08:00;;;;;;;12.47;7.83;;;19.50;99.90;;;;;;5119268;28;20441;-82
2021/07/04 00:10:29;;;;;;;11.60;7.67;;;19.40;99.90;;;;;;5107424;28;20457;-82
2021/07/04 00:12:59;;;;;;;13.60;8.00;;;19.40;99.90;;;;;;5102383;28;20457;-82
2021/07/04 00:15:34;;;;;;;12.53;6.97;;;19.40;99.90;;;;;;5106880;28;20494;-82
2021/07/04 00:18:01;;;;;;;13.00;8.50;;;19.40;99.90;;;;;;5111311;28;20452;-81
2021/07/04 00:20:28;;;;;;;10.40;6.53;;;19.40;99.90;;;;;;5124516;28;20528;-82
2021/07/04 00:22:55;;;;;;;12.70;7.87;;;19.40;99.90;;;;;;5128085;28;20452;-82
2021/07/04 00:25:26;;;;;;;12.60;7.60;;;19.40;99.90;;;;;;5109527;28;20453;-82
2021/07/04 00:27:53;;;;;;;12.40;8.03;;;19.40;99.90;;;;;;5117032;28;20456;-82
2021/07/04 00:30:22;;;;;;;12.20;7.40;;;19.40;99.90;;;;;;5113691;28;20436;-82
2021/07/04 00:32:49;;;;;;;12.37;7.57;;;19.40;99.90;;;;;;5112771;28;20498;-82
2021/07/04 00:35:17;;;;;;;12.70;8.47;;;19.40;99.90;;;;;;5106978;28;20434;-82
2021/07/04 00:37:45;;;;;;;12.63;8.03;;;19.40;99.90;;;;;;5112599;28;20481;-81
2021/07/04 00:40:13;;;;;;;13.73;7.43;;;19.40;99.90;;;;;;5112183;28;20446;-82
2021/07/04 00:42:41;;;;;;;11.50;7.77;;;19.40;99.90;;;;;;5117881;28;20817;-82
2021/07/04 00:45:11;;;;;;;12.67;8.43;;;19.30;99.90;;;;;;5121176;28;20443;-81
2021/07/04 00:47:39;;;;;;;12.47;8.30;;;19.30;99.90;;;;;;5121098;28;20489;-81
2021/07/04 00:50:07;;;;;;;12.60;7.73;;;19.30;99.90;;;;;;5120659;28;20434;-82
2021/07/04 00:52:35;;;;;;;12.70;8.00;;;19.30;99.90;;;;;;5112948;28;20443;-81
2021/07/04 00:55:05;;;;;;;12.63;7.67;;;19.20;99.90;;;;;;5100946;28;20434;-82
2021/07/04 00:57:33;;;;;;;13.50;8.50;;;19.20;99.90;;;;;;5101858;28;20481;-81
2021/07/04 01:00:00;;;;;;;13.70;7.93;;;19.20;99.90;;;;;;5100208;28;20932;-81
2021/07/04 01:02:27;;;;;;;11.43;7.47;;;19.20;99.90;;;;;;5100452;28;20485;-81
2021/07/04 01:04:57;;;;;;;11.80;7.40;;;19.20;99.90;;;;;;5099368;28;21084;-81
2021/07/04 01:07:24;;;;;;;12.40;7.83;;;19.20;99.90;;;;;;5099634;28;20485;-81
2021/07/04 01:09:51;;;;;;;14.17;8.93;;;19.20;99.90;;;;;;5113599;28;20456;-81
2021/07/04 01:12:18;;;;;;;12.60;8.23;;;19.20;99.90;;;;;;5121399;28;20459;-81
2021/07/04 01:14:45;;;;;;;14.30;9.23;;;19.20;99.90;;;;;;5119636;28;20460;-81
2021/07/04 01:17:12;;;;;;;15.70;9.80;;;19.20;99.90;;;;;;5118534;28;20477;-81
2021/07/04 01:19:39;;;;;;;12.20;8.30;;;19.20;99.90;;;;;;5119394;28;20978;-82
2021/07/04 01:22:08;;;;;;;13.77;9.43;;;19.20;99.90;;;;;;5119329;28;20449;-81
2021/07/04 01:24:36;;;;;;;12.43;8.30;;;19.20;99.90;;;;;;5118901;28;20437;-81
2021/07/04 01:27:04;;;;;;;13.87;9.03;;;19.30;99.90;;;;;;5099876;28;20482;-81
2021/07/04 01:29:31;;;;;;;14.37;10.43;;;19.20;99.90;;;;;;5098922;28;20982;-81
2021/07/04 01:31:57;;;;;;;14.43;10.20;;;19.20;99.90;;;;;;5099297;28;20541;-81
2021/07/04 01:34:24;;;;;;;12.57;9.23;;;19.20;99.90;;;;;;5099117;28;20525;-81
2021/07/04 01:36:51;;;;;;;15.53;9.90;;;19.20;99.90;;;;;;5099515;28;20840;-81
2021/07/04 01:39:18;;;;;;;14.70;9.80;;;19.20;99.90;;;;;;5099533;28;20489;-81
2021/07/04 01:41:46;;;;;;;13.53;9.60;;;19.20;99.90;;;;;;5107961;28;20473;-81
2021/07/04 01:44:13;;;;;;;16.20;10.37;;;19.30;99.90;;;;;;5108951;28;20454;-82
2021/07/04 01:46:40;;;;;;;14.07;10.47;;;19.20;99.90;;;;;;5100971;28;20503;-82
2021/07/04 01:49:06;;;;;;;15.03;9.20;;;19.20;99.90;;;;;;5102464;28;20861;-81
2021/07/04 01:51:43;;;;;;;13.50;9.03;;;19.20;99.90;;;;;;5112519;28;20457;-81
2021/07/04 01:54:16;;;;;;;16.07;9.77;;;19.20;99.90;;;;;;5115765;28;20505;-81
2021/07/04 01:56:52;;;;;;;14.57;9.97;;;19.20;99.90;;;;;;5116466;28;20458;-81
2021/07/04 01:59:21;;;;;;;12.27;8.80;;;19.20;99.90;;;;;;5115704;28;20505;-81
2021/07/04 02:01:55;;;;;;;15.23;11.07;;;19.20;99.90;;;;;;5116123;28;20494;-81
2021/07/04 02:04:29;;;;;;;15.10;10.33;;;19.20;99.90;;;;;;5115363;28;20484;-81
2021/07/04 02:07:01;;;;;;;14.13;9.80;;;19.20;99.90;;;;;;5103088;28;20495;-82
2021/07/04 02:09:36;;;;;;;14.63;9.17;;;19.20;99.90;;;;;;5106792;28;20445;-82
2021/07/04 02:12:10;;;;;;;15.20;10.90;;;19.20;99.90;;;;;;5121116;28;20482;-82
2021/07/04 02:14:37;;;;;;;13.20;9.40;;;19.20;99.90;;;;;;5121104;28;20449;-82
2021/07/04 02:17:10;;;;;;;14.50;9.93;;;19.20;99.90;;;;;;5121484;28;20526;-82
2021/07/04 02:19:40;;;;;;;14.27;9.67;;;19.20;99.90;;;;;;5121071;28;20548;-82
2021/07/04 02:22:08;;;;;;;14.23;9.83;;;19.20;99.90;;;;;;5121052;28;20430;-82
2021/07/04 02:24:36;;;;;;;15.87;9.43;;;19.20;99.90;;;;;;5121328;28;20479;-81
2021/07/04 02:27:05;;;;;;;15.70;10.90;;;19.10;99.90;;;;;;5102255;28;20465;-82
2021/07/04 02:29:31;;;;;;;16.00;10.50;;;19.10;99.90;;;;;;5098515;28;20472;-81
2021/07/04 02:31:59;;;;;;;13.40;9.37;;;19.10;99.90;;;;;;5099043;28;20448;-81
2021/07/04 02:34:28;;;;;;;14.57;10.70;;;19.10;99.90;;;;;;5098621;28;20448;-81
2021/07/04 02:36:55;;;;;;;13.50;9.73;;;19.10;99.90;;;;;;5098716;28;20470;-81
2021/07/04 02:39:21;;;;;;;15.97;10.10;;;19.00;99.90;;;;;;5097679;28;20496;-81
2021/07/04 02:41:48;;;;;;;16.10;10.23;;;19.00;99.90;;;;;;5104452;28;20453;-81
2021/07/04 02:44:17;;;;;;;13.57;9.10;;;19.00;99.90;;;;;;5107353;28;20469;-82
2021/07/04 02:46:44;;;;;;;14.10;9.83;;;19.00;99.90;;;;;;5098570;28;20458;-81
2021/07/04 02:49:11;;;;;;;16.00;10.50;;;19.00;99.90;;;;;;5097708;28;20456;-81
2021/07/04 02:51:37;;;;;;;16.03;11.20;;;19.00;99.90;;;;;;5098121;28;20527;-81
2021/07/04 02:54:04;;;;;;;13.97;9.33;;;19.00;99.90;;;;;;5097986;28;20529;-82
2021/07/04 02:56:31;;;;;;;15.20;11.03;;;18.90;99.90;;;;;;5097677;28;20463;-82
2021/07/04 02:58:58;;;;;;;14.63;10.60;;;18.90;99.90;;;;;;5099441;28;20478;-82
2021/07/04 03:01:26;;;;;;;15.40;10.40;;;18.90;99.90;;;;;;5099179;28;20450;-82
2021/07/04 03:03:53;;;;;;;15.13;10.23;;;18.90;99.90;;;;;;5098700;28;20538;-82
2021/07/04 03:06:20;;;;;;;16.10;11.47;;;18.90;99.90;;;;;;5098466;28;20502;-82
2021/07/04 03:08:47;;;;;;;13.97;10.40;;;18.90;99.90;;;;;;5098285;28;20934;-83
2021/07/04 03:11:14;;;;;;;16.13;11.50;;;18.90;99.90;;;;;;5098596;28;20935;-83
2021/07/04 03:13:40;;;;;;;16.87;10.70;;;18.90;99.90;;;;;;5098202;28;20435;-83
2021/07/04 03:16:07;;;;;;;16.43;11.83;;;18.90;99.90;;;;;;5112728;28;20516;-83
2021/07/04 03:18:35;;;;;;;16.40;11.50;;;18.90;99.90;;;;;;5112633;28;20489;-82
2021/07/04 03:21:02;;;;;;;15.27;10.67;;;18.90;99.90;;;;;;5116842;28;20438;-82
2021/07/04 03:23:29;;;;;;;14.50;10.80;;;18.90;99.90;;;;;;5117839;28;20520;-82
2021/07/04 03:25:59;;;;;;;18.30;12.17;;;18.90;99.90;;;;;;5118982;28;21248;-82
2021/07/04 03:28:26;;;;;;;18.00;11.30;;;18.90;99.90;;;;;;5118667;28;20524;-82
2021/07/04 03:30:56;;;;;;;15.10;11.03;;;18.90;99.90;;;;;;5112814;28;20541;-82
2021/07/04 03:33:23;;;;;;;17.00;11.20;;;18.90;99.90;;;;;;5098499;28;20454;-83
2021/07/04 03:35:52;;;;;;;14.70;11.00;;;18.90;99.90;;;;;;5098236;28;20961;-82
2021/07/04 03:38:19;;;;;;;19.10;11.40;;;18.90;99.90;;;;;;5098597;28;20493;-82
2021/07/04 03:40:46;;;;;;;16.87;11.50;;;18.90;99.90;;;;;;5102187;28;20442;-83
2021/07/04 03:43:13;;;;;;;16.07;12.23;;;18.90;99.90;;;;;;5102579;28;20450;-82
2021/07/04 03:45:39;;;;;;;18.03;12.20;;;18.90;99.90;;;;;;5102630;28;20473;-82
2021/07/04 03:48:07;;;;;;;16.97;11.93;;;18.90;99.90;;;;;;5103689;28;20513;-83
2021/07/04 03:50:34;;;;;;;15.63;10.60;;;18.90;99.90;;;;;;5122595;28;20457;-82
2021/07/04 03:53:03;;;;;;;18.10;12.10;;;18.90;99.90;;;;;;5123344;28;20513;-83
2021/07/04 03:55:30;;;;;;;18.87;13.43;;;18.90;99.90;;;;;;5121748;28;20473;-82
2021/07/04 03:57:56;;;;;;;16.90;12.67;;;18.90;99.90;;;;;;5121583;28;20445;-83
2021/07/04 04:00:23;;;;;;;20.57;13.97;;;18.90;99.90;;;;;;5121821;28;20519;-83
2021/07/04 04:02:50;;;;;;;17.27;13.33;;;18.90;99.90;;;;;;5105573;28;20463;-84
2021/07/04 04:05:17;;;;;;;17.60;13.10;;;18.90;99.90;;;;;;5117049;28;20458;-85
2021/07/04 04:07:44;;;;;;;18.13;13.10;;;18.90;99.90;;;;;;5118017;28;20535;-85
2021/07/04 04:10:15;;;;;;;17.67;13.23;;;18.90;99.90;;;;;;5118004;28;20470;-86
2021/07/04 04:12:42;;;;;;;17.80;13.03;;;18.90;99.90;;;;;;5118071;28;20465;-85
2021/07/04 04:15:11;;;;;;;18.77;13.83;;;18.90;99.90;;;;;;5118153;28;20488;-85
2021/07/04 04:17:38;;;;;;;18.30;12.70;;;18.80;99.90;;;;;;5117053;28;21045;-84
2021/07/04 04:20:06;;;;;;;15.10;11.80;;;18.80;99.90;;;;;;5108358;28;20479;-85
2021/07/04 04:22:33;;;;;;;17.07;12.57;;;18.80;99.90;;;;;;5121906;28;20455;-84
2021/07/04 04:25:00;;;;;;;18.10;13.53;;;18.90;99.90;;;;;;5125198;28;20536;-84
2021/07/04 04:27:28;;;;;;;15.57;11.27;;;18.90;99.90;;;;;;5125764;28;21087;-84
2021/07/04 04:29:55;;;;;;;15.70;11.67;;;18.90;99.90;;;;;;5126481;28;20441;-84
2021/07/04 04:32:22;;;;;;;15.30;11.60;;;18.90;99.90;;;;;;5129638;28;20453;-85
2021/07/04 04:34:49;;;;;;;15.93;12.10;;;18.90;99.90;;;;;;5130258;28;20920;-83
2021/07/04 04:37:16;;;;;;;17.27;12.50;;;18.90;99.90;;;;;;5120465;28;21067;-84
2021/07/04 04:39:43;;;;;;;19.00;12.50;;;19.00;99.90;;;;;;5122349;28;20481;-84
2021/07/04 04:42:10;;;;;;;19.60;13.53;;;19.00;99.90;;;;;;5122867;28;20449;-84
2021/07/04 04:44:38;;;;;;;16.60;13.27;;;19.00;99.90;;;;;;5122975;28;20456;-84
2021/07/04 04:47:06;;;;;;;16.63;12.63;;;19.00;99.90;;;;;;5124089;28;20487;-84
2021/07/04 04:49:33;;;;;;;14.77;12.10;;;19.10;99.90;;;;;;5123669;28;20446;-83
2021/07/04 04:52:00;;;;;;;16.17;11.70;;;19.20;99.90;;;;;;5122350;28;21076;-83
2021/07/04 04:54:27;;;;;;;15.87;11.83;;;19.20;99.90;;;;;;5107202;28;20458;-83
2021/07/04 04:56:54;;;;;;;16.57;12.20;;;19.30;99.90;;;;;;5106491;28;20566;-82
2021/07/04 04:59:21;;;;;;;18.80;12.20;;;19.30;99.90;;;;;;5100703;28;20569;-83
2021/07/04 05:02:00;;;;;;;16.90;11.40;;;19.40;99.90;;;;;;5101138;28;20521;-80
2021/07/04 05:04:39;;;;;;;16.57;12.70;;;19.40;99.90;;;;;;5102881;28;20541;-83
2021/07/04 05:10:15;;;;;;;17.77;12.83;;;19.50;99.90;;;;;;5113512;28;20592;-84
2021/07/04 05:13:02;;;;;;;17.23;13.20;;;19.60;99.90;;;;;;5121468;28;20516;-82
2021/07/04 05:23:08;;;;;;;16.27;12.47;;;19.80;99.90;;;;;;4962269;28;20446;-81
2021/07/04 05:32:26;;;;;;;15.87;12.20;;;20.00;99.90;;;;;;4944600;28;20460;-84
2021/07/04 05:34:53;;;;;;;17.93;13.33;;;19.90;99.90;;;;;;4984641;28;20451;-81
2021/07/04 05:38:18;;;;;;;;;;;;;;;;;;;;;
2021/07/04 05:43:26;;;;;;;15.13;11.47;;;19.90;99.90;;;;;;5106313;28;20449;-81
2021/07/04 05:45:53;;;;;;;17.17;13.00;;;19.90;99.90;;;;;;5118398;28;20473;-81
2021/07/04 05:48:21;;;;;;;16.23;13.10;;;19.90;99.90;;;;;;5114638;28;20465;-82
2021/07/04 05:50:49;;;;;;;19.87;14.30;;;20.00;99.90;;;;;;5098983;28;20476;-84
2021/07/04 05:53:16;;;;;;;17.10;13.50;;;20.00;99.90;;;;;;5101146;28;20446;-83
2021/07/04 05:55:43;;;;;;;17.33;13.40;;;20.00;99.90;;;;;;5101289;28;20457;-83
2021/07/04 05:58:10;;;;;;;17.30;12.80;;;20.10;99.90;;;;;;5099285;28;20895;-83
2021/07/04 06:00:37;;;;;;;18.23;13.60;;;20.10;99.90;;;;;;5102690;28;20478;-84
2021/07/04 06:03:04;;;;;;;17.00;12.87;;;20.10;99.90;;;;;;5102440;28;20485;-83
2021/07/04 06:05:32;;;;;;;17.83;13.23;;;20.10;99.90;;;;;;5101974;28;20502;-82
2021/07/04 06:07:59;;;;;;;17.37;12.33;;;20.10;99.90;;;;;;5103708;28;20454;-84
2021/07/04 06:10:30;;;;;;;17.60;13.50;;;20.10;99.90;;;;;;5103165;28;20533;-81
2021/07/04 06:12:57;;;;;;;18.93;13.63;;;20.10;99.90;;;;;;5103601;28;20454;-83
2021/07/04 06:15:24;;;;;;;18.83;13.30;;;20.20;99.90;;;;;;5102939;28;20457;-84
2021/07/04 06:18:12;;;;;;;16.97;14.10;;;20.20;99.90;;;;;;5113946;28;20532;-82
2021/07/04 06:20:44;;;;;;;16.27;13.10;;;20.20;99.90;;;;;;5111339;28;20509;-84
2021/07/04 06:23:32;;;;;;;17.20;12.83;;;20.30;99.90;;;;;;5111455;28;20445;-83
2021/07/04 06:25:59;;;;;;;16.63;12.80;;;20.40;99.90;;;;;;5112727;28;20832;-84
2021/07/04 06:28:30;;;;;;;16.30;13.17;;;20.50;99.90;;;;;;5113317;28;20457;-83
2021/07/04 06:30:56;;;;;;;16.87;12.87;;;20.60;99.90;;;;;;5110850;28;20494;-85
2021/07/04 06:33:29;;;;;;;18.80;14.50;;;20.70;99.90;;;;;;5108893;28;20545;-83
2021/07/04 06:35:57;;;;;;;18.07;13.40;;;20.90;99.90;;;;;;5115708;28;20457;-85
2021/07/04 06:38:27;;;;;;;16.83;12.47;;;21.00;99.90;;;;;;5112177;28;20521;-83
2021/07/04 06:40:54;;;;;;;16.30;12.67;;;21.00;99.90;;;;;;5124614;28;20473;-86
2021/07/04 06:43:21;;;;;;;16.93;12.80;;;21.20;99.90;;;;;;5118317;28;20449;-85
2021/07/04 06:45:48;;;;;;;15.67;11.90;;;21.20;99.90;;;;;;5119648;28;20568;-85
2021/07/04 06:48:17;;;;;;;16.20;12.13;;;21.20;99.90;;;;;;5122721;28;20872;-85
2021/07/04 06:50:44;;;;;;;15.47;11.53;;;21.20;99.90;;;;;;5127318;28;20457;-85
2021/07/04 06:53:15;;;;;;;14.27;11.60;;;21.20;99.90;;;;;;5119625;28;20804;-84
2021/07/04 06:58:22;;;;;;;16.53;12.00;;;21.20;99.90;;;;;;5068966;28;20474;-86
2021/07/04 07:00:48;;;;;;;17.40;12.80;;;21.20;99.90;;;;;;5073478;28;20484;-86
2021/07/04 07:03:16;;;;;;;17.27;12.40;;;21.20;99.90;;;;;;5073401;28;20449;-85
2021/07/04 07:05:43;;;;;;;14.50;11.23;;;21.20;99.90;;;;;;5071325;28;20448;-85
2021/07/04 07:08:11;;;;;;;16.43;10.67;;;21.20;99.90;;;;;;5066189;28;20470;-84
2021/07/04 07:10:38;;;;;;;16.90;11.20;;;21.10;99.90;;;;;;5070099;28;20448;-84
2021/07/04 07:13:06;;;;;;;16.10;10.97;;;21.00;99.90;;;;;;5083459;28;20506;-83
2021/07/04 07:15:32;;;;;;;19.00;12.53;;;20.80;99.90;;;;;;5095318;28;20430;-84
2021/07/04 07:17:59;;;;;;;14.63;10.10;;;20.90;99.90;;;;;;5096686;28;20473;-84
2021/07/04 07:20:26;;;;;;;17.57;11.07;;;21.00;99.90;;;;;;5077669;28;22040;-85
2021/07/04 07:22:53;;;;;;;17.10;12.40;;;21.20;99.90;;;;;;5076407;28;20453;-84
2021/07/04 07:25:21;;;;;;;13.40;10.20;;;21.50;99.90;;;;;;5074370;28;20443;-83
2021/07/04 07:27:48;;;;;;;14.47;10.30;;;21.70;99.90;;;;;;5068916;28;20574;-84
2021/07/04 07:30:16;;;;;;;17.23;11.07;;;21.90;99.90;;;;;;5070557;28;20454;-85
2021/07/04 07:32:43;;;;;;;18.63;10.30;;;22.00;99.90;;;;;;5074851;28;20538;-85
2021/07/04 07:35:11;;;;;;;15.83;10.40;;;22.10;99.90;;;;;;5075253;28;20467;-85
2021/07/04 07:37:38;;;;;;;16.67;11.53;;;22.20;99.90;;;;;;5067045;28;20502;-85
2021/07/04 07:40:07;;;;;;;15.90;9.67;;;22.50;99.90;;;;;;5074111;28;20481;-84
2021/07/04 07:42:35;;;;;;;15.43;10.17;;;22.70;99.90;;;;;;5061486;28;20452;-85
2021/07/04 07:45:03;;;;;;;16.87;10.33;;;22.90;99.90;;;;;;5073956;28;20526;-86
2021/07/04 07:47:30;;;;;;;19.17;10.70;;;23.00;99.90;;;;;;5079094;28;20552;-86
2021/07/04 07:50:00;;;;;;;20.00;10.80;;;23.10;99.90;;;;;;5072932;28;20439;-87
2021/07/04 07:52:26;;;;;;;17.00;9.50;;;23.00;99.90;;;;;;5055940;28;20455;-86
2021/07/04 07:54:53;;;;;;;17.47;10.10;;;23.00;99.90;;;;;;5063035;28;20443;-86
2021/07/04 07:57:20;;;;;;;17.17;10.27;;;23.20;99.90;;;;;;5075201;28;20565;-86
2021/07/04 07:59:49;;;;;;;18.13;10.30;;;23.40;99.90;;;;;;5075795;28;20550;-87
2021/07/04 08:02:16;;;;;;;16.73;8.60;;;23.60;99.90;;;;;;5075542;28;20451;-86
2021/07/04 08:04:43;;;;;;;17.50;10.60;;;23.70;99.90;;;;;;5068032;28;20447;-83
2021/07/04 08:07:10;;;;;;;21.00;10.30;;;23.80;99.90;;;;;;5075709;28;20481;-86
2021/07/04 08:09:37;;;;;;;17.33;10.10;;;23.80;99.90;;;;;;5074273;28;20987;-84
2021/07/04 08:12:04;;;;;;;19.23;9.70;;;24.00;99.90;;;;;;5072757;28;20466;-84
2021/07/04 08:14:31;;;;;;;15.90;10.50;;;24.30;99.90;;;;;;5075569;28;20451;-86
2021/07/04 08:16:59;;;;;;;15.60;8.20;;;24.60;99.90;;;;;;5074769;28;20550;-87
2021/07/04 08:19:26;;;;;;;19.90;9.87;;;24.70;99.90;;;;;;5071429;28;20512;-86
2021/07/04 08:21:53;;;;;;;18.30;11.13;;;24.60;99.90;;;;;;5071895;28;20505;-85
2021/07/04 08:24:20;;;;;;;18.17;10.50;;;24.40;99.90;;;;;;5070913;28;20451;-86
2021/07/04 08:26:47;;;;;;;18.63;11.43;;;24.10;99.90;;;;;;5064919;28;20558;-87
2021/07/04 08:29:14;;;;;;;17.33;10.67;;;24.00;99.90;;;;;;5083396;28;20455;-87
2021/07/04 08:31:41;;;;;;;15.97;10.00;;;24.30;99.90;;;;;;5074906;28;20449;-87
2021/07/04 08:34:09;;;;;;;18.93;10.50;;;24.60;99.90;;;;;;5095139;28;20457;-87
2021/07/04 08:36:36;;;;;;;16.60;8.67;;;24.60;99.90;;;;;;5095436;28;20454;-86
2021/07/04 08:39:05;;;;;;;15.97;10.20;;;24.60;99.90;;;;;;5095683;28;20444;-87
2021/07/04 08:41:31;;;;;;;18.43;10.33;;;24.50;99.90;;;;;;5093642;28;20492;-86
2021/07/04 08:44:03;;;;;;;14.87;9.30;;;24.40;99.90;;;;;;5070860;28;20469;-87
2021/07/04 08:46:30;;;;;;;16.00;9.20;;;24.30;99.90;;;;;;5076658;28;20562;-87
2021/07/04 08:48:57;;;;;;;16.40;9.77;;;24.00;99.90;;;;;;5067756;28;20537;-86
2021/07/04 08:51:25;;;;;;;16.30;10.57;;;23.90;99.90;;;;;;5071480;28;20451;-86
2021/07/04 08:53:52;;;;;;;16.80;11.57;;;24.00;99.90;;;;;;5075028;28;20965;-86
2021/07/04 08:56:19;;;;;;;17.40;10.93;;;24.10;99.90;;;;;;5074818;28;20561;-87
2021/07/04 08:58:46;;;;;;;20.30;10.60;;;24.10;99.90;;;;;;5074891;28;20479;-86
2021/07/04 09:01:15;;;;;;;15.97;9.60;;;23.90;99.90;;;;;;5074616;28;20511;-86
2021/07/04 09:03:45;;;;;;;15.80;9.47;;;24.00;99.90;;;;;;5075765;28;20462;-86
2021/07/04 09:06:12;;;;;;;15.67;9.50;;;24.00;99.90;;;;;;5076239;28;20451;-87
2021/07/04 09:08:41;;;;;;;14.40;9.23;;;24.10;99.90;;;;;;5075202;28;20883;-87
2021/07/04 09:11:14;;;;;;;17.10;8.73;;;24.60;99.90;;;;;;5076535;28;20451;-86
2021/07/04 09:13:42;;;;;;;15.77;9.00;;;24.90;99.90;;;;;;5079758;28;20951;-87
2021/07/04 09:16:11;;;;;;;20.10;9.50;;;25.20;99.90;;;;;;5074610;28;20455;-86
2021/07/04 09:18:39;;;;;;;16.33;8.03;;;25.50;99.90;;;;;;5073877;28;20453;-86
2021/07/04 09:21:24;;;;;;;20.60;7.23;;;25.80;99.90;;;;;;5065994;28;20491;-87
2021/07/04 09:23:52;;;;;;;21.17;7.70;;;25.70;99.90;;;;;;5063600;28;20843;-84
2021/07/04 09:26:41;;;;;;;23.70;8.00;;;25.90;99.90;;;;;;5054278;28;20482;-84
2021/07/04 09:29:12;;;;;;;17.47;7.00;;;26.10;99.90;;;;;;5053794;28;20452;-84
2021/07/04 09:31:41;;;;;;;16.30;7.10;;;26.30;99.90;;;;;;5054429;28;20539;-85
2021/07/04 09:34:14;;;;;;;15.50;5.93;;;26.40;99.90;;;;;;5054173;28;20458;-83
2021/07/04 09:36:45;;;;;;;18.57;6.30;;;26.20;99.90;;;;;;5061371;28;20477;-83
2021/07/04 09:39:21;;;;;;;15.17;6.70;;;25.90;99.90;;;;;;5074652;28;20451;-85
2021/07/04 09:42:10;;;;;;;17.90;7.73;;;26.00;99.90;;;;;;5074224;28;20570;-85
2021/07/04 09:44:38;;;;;;;15.67;6.37;;;26.40;99.90;;;;;;5075623;28;20982;-83
2021/07/04 09:47:17;;;;;;;15.10;6.50;;;26.50;99.90;;;;;;5077455;28;20535;-83
2021/07/04 09:50:02;;;;;;;16.83;6.80;;;26.70;99.90;;;;;;5077071;28;20479;-84
2021/07/04 09:52:29;;;;;;;27.20;7.10;;;26.60;99.90;;;;;;5067846;28;20504;-85
2021/07/04 09:55:05;;;;;;;19.07;6.63;;;26.30;99.90;;;;;;5071152;28;20524;-84
2021/07/04 09:57:54;;;;;;;17.03;7.03;;;26.00;99.90;;;;;;5100976;22;20516;-84
2021/07/04 10:03:16;;;;;;;16.20;6.83;;;25.50;99.90;;;;;;5111338;28;20519;-84
2021/07/04 10:05:45;;;;;;;14.57;6.23;;;25.40;99.90;;;;;;5114507;27;20519;-84
2021/07/04 10:08:34;;;;;;;14.70;6.30;;;25.60;99.90;;;;;;5100184;27;20479;-84
2021/07/04 10:11:04;;;;;;;15.47;5.37;;;26.20;99.90;;;;;;5082876;28;20458;-84
2021/07/04 10:13:32;;;;;;;12.13;5.40;;;26.70;99.90;;;;;;5101762;28;20797;-83
2021/07/04 10:16:01;;;;;;;31.33;5.03;;;27.40;99.90;;;;;;5088868;28;20478;-84
2021/07/04 10:18:28;;;;;;;23.97;8.10;;;27.70;99.90;;;;;;5088760;28;20472;-85
2021/07/04 10:20:55;;;;;;;18.80;6.53;;;27.90;99.90;;;;;;5085327;28;20504;-84
2021/07/04 10:23:25;;;;;;;17.87;6.10;;;27.60;99.90;;;;;;5087800;28;20445;-83
2021/07/04 10:25:54;;;;;;;22.07;7.03;;;27.20;99.90;;;;;;5098242;28;20993;-85
2021/07/04 10:28:27;;;;;;;17.90;6.77;;;26.80;99.90;;;;;;5099489;28;20457;-84
2021/07/04 10:30:57;;;;;;;20.47;6.37;;;26.50;99.90;;;;;;5099869;28;20430;-84
2021/07/04 10:33:32;;;;;;;19.20;6.17;;;26.10;99.90;;;;;;5096390;28;20447;-85
2021/07/04 10:36:05;;;;;;;17.87;6.47;;;25.90;99.90;;;;;;5091408;28;20445;-85
2021/07/04 10:38:53;;;;;;;18.20;6.60;;;25.80;99.90;;;;;;5103159;28;20429;-83
2021/07/04 10:41:23;;;;;;;17.90;5.90;;;25.60;99.90;;;;;;5101480;28;20846;-84
2021/07/04 10:44:13;;;;;;;15.70;5.23;;;25.50;99.90;;;;;;5080445;28;20450;-84
2021/07/04 10:47:14;;;;;;;16.70;3.80;;;25.30;99.90;;;;;;5098406;28;20469;-83
2021/07/04 10:49:50;;;;;;;19.30;4.53;;;25.00;99.90;;;;;;5101435;28;20434;-82
2021/07/04 10:52:38;;;;;;;15.10;4.00;;;24.60;99.90;;;;;;5089223;28;20526;-83
2021/07/04 10:55:07;;;;;;;17.73;3.80;;;24.30;99.90;;;;;;5073450;28;20447;-83
2021/07/04 10:57:36;;;;;;;13.30;3.70;;;24.10;99.90;;;;;;5081223;28;20475;-88
2021/07/04 11:00:39;;;;;;;14.40;4.20;;;24.00;99.90;;;;;;5084720;28;20472;-86
2021/07/04 11:03:09;;;;;;;13.73;4.80;;;24.00;99.90;;;;;;5085077;28;20514;-84
2021/07/04 11:05:46;;;;;;;14.13;4.30;;;23.90;99.90;;;;;;5087141;28;20981;-85
2021/07/04 11:08:18;;;;;;;15.70;4.70;;;24.00;99.90;;;;;;5103611;28;20564;-85
2021/07/04 11:11:01;;;;;;;12.70;4.27;;;23.90;99.90;;;;;;5097113;28;20443;-83
2021/07/04 11:13:42;;;;;;;14.73;3.80;;;24.30;99.90;;;;;;5092868;28;20449;-86
2021/07/04 11:16:16;;;;;;;16.07;4.53;;;25.20;99.90;;;;;;5094476;28;20997;-85
2021/07/04 11:18:46;;;;;;;13.27;4.27;;;25.70;99.90;;;;;;5075878;28;20452;-85
2021/07/04 11:21:15;;;;;;;15.63;3.90;;;26.10;99.90;;;;;;5094546;28;20489;-85
2021/07/04 11:23:43;;;;;;;16.03;3.87;;;26.40;99.90;;;;;;5094946;28;20453;-85
2021/07/04 11:26:18;;;;;;;14.47;3.67;;;26.50;99.90;;;;;;5090896;28;20458;-84
2021/07/04 11:28:47;;;;;;;16.27;3.60;;;26.90;99.90;;;;;;5077309;28;20909;-85
2021/07/04 11:31:26;;;;;;;17.23;3.93;;;26.90;99.90;;;;;;5073007;28;20935;-85
2021/07/04 11:33:53;;;;;;;16.13;4.13;;;26.50;99.90;;;;;;5091845;28;20888;-85
2021/07/04 11:36:24;;;;;;;13.07;3.53;;;26.00;99.90;;;;;;5101064;28;20476;-84
2021/07/04 11:38:53;;;;;;;15.53;3.70;;;25.70;99.90;;;;;;5092820;28;20462;-85
2021/07/04 11:41:22;;;;;;;12.20;3.70;;;25.30;99.90;;;;;;5096471;28;20486;-86
2021/07/04 11:43:49;;;;;;;11.90;4.23;;;25.00;99.90;;;;;;5074408;28;20493;-84
2021/07/04 11:46:18;;;;;;;11.13;4.43;;;24.60;99.90;;;;;;5076687;28;21015;-87
2021/07/04 11:48:56;;;;;;;12.80;5.17;;;24.30;99.90;;;;;;5092495;28;20540;-86
2021/07/04 11:51:32;;;;;;;11.60;5.37;;;24.00;99.90;;;;;;5093875;28;20450;-85
2021/07/04 11:54:03;;;;;;;13.47;5.50;;;23.70;99.90;;;;;;5073511;28;20825;-85
2021/07/04 11:56:30;;;;;;;12.17;4.70;;;23.30;99.90;;;;;;5072648;28;21002;-85
2021/07/04 11:59:11;;;;;;;11.27;5.00;;;23.10;99.90;;;;;;5073721;28;20455;-86
2021/07/04 12:01:46;;;;;;;10.40;4.87;;;22.90;99.90;;;;;;5076140;28;20482;-84
2021/07/04 12:04:15;;;;;;;14.93;6.90;;;22.70;99.90;;;;;;5079737;28;20457;-84
2021/07/04 12:07:00;;;;;;;13.00;6.70;;;22.60;99.90;;;;;;5086398;28;20475;-84
2021/07/04 12:09:38;;;;;;;17.37;7.90;;;22.40;99.90;;;;;;5099487;28;20446;-84
2021/07/04 12:12:06;;;;;;;15.40;8.70;;;22.30;99.90;;;;;;5099829;28;20464;-83
2021/07/04 12:14:34;;;;;;;13.03;8.67;;;22.20;99.90;;;;;;5106244;28;20524;-84
2021/07/04 12:17:25;;;;;;;13.70;9.57;;;22.20;99.90;;;;;;5106516;28;20515;-84
2021/07/04 12:20:16;;;;;;;15.73;11.20;;;22.20;99.90;;;;;;5113729;28;20446;-81
2021/07/04 12:22:52;;;;;;;15.90;11.30;;;22.30;99.90;;;;;;5107100;28;20481;-81
2021/07/04 12:25:21;;;;;;;16.73;11.40;;;22.40;99.90;;;;;;5086636;28;20477;-83
2021/07/04 12:27:50;;;;;;;14.70;10.23;;;22.40;99.90;;;;;;5082021;28;20514;-85
2021/07/04 12:30:20;;;;;;;18.00;8.73;;;22.40;99.90;;;;;;5092485;28;20438;-84
2021/07/04 12:32:52;;;;;;;13.47;8.00;;;22.30;99.90;;;;;;5096013;28;20455;-84
2021/07/04 12:35:26;;;;;;;15.23;7.97;;;22.20;99.90;;;;;;5094193;28;20455;-83
2021/07/04 12:38:12;;;;;;;10.40;6.50;;;22.30;99.90;;;;;;5095063;28;20457;-84
2021/07/04 12:40:50;;;;;;;10.30;5.60;;;22.50;99.90;;;;;;5095053;28;20446;-84
2021/07/04 12:43:20;;;;;;;9.23;4.40;;;22.70;99.90;;;;;;5092254;28;20521;-83
2021/07/04 12:45:49;;;;;;;9.80;5.00;;;22.90;99.90;;;;;;5099455;28;20459;-84
2021/07/04 12:48:17;;;;;;;11.07;5.00;;;23.00;99.90;;;;;;5101470;28;20487;-85
2021/07/04 12:50:53;;;;;;;10.37;3.73;;;23.00;99.90;;;;;;5093887;28;20446;-84
2021/07/04 12:53:21;;;;;;;10.20;5.10;;;23.00;99.90;;;;;;5088366;28;20449;-84
2021/07/04 12:55:53;;;;;;;11.13;5.43;;;23.20;99.90;;;;;;5091412;28;20442;-83
2021/07/04 12:58:37;;;;;;;12.10;4.90;;;23.10;99.90;;;;;;5097459;28;20891;-83
2021/07/04 13:01:13;;;;;;;10.70;5.00;;;23.30;99.90;;;;;;5115179;28;20453;-85
2021/07/04 13:03:43;;;;;;;11.50;4.40;;;23.70;99.90;;;;;;5116174;28;20509;-84
2021/07/04 13:06:40;;;;;;;10.43;5.20;;;24.00;99.90;;;;;;5100207;28;20456;-86
2021/07/04 13:09:10;;;;;;;11.90;4.87;;;24.10;99.90;;;;;;5105119;28;21003;-86
2021/07/04 13:11:38;;;;;;;13.07;5.20;;;24.00;99.90;;;;;;5094291;28;20438;-86
2021/07/04 13:14:08;;;;;;;10.40;4.73;;;23.60;99.90;;;;;;5095050;28;20442;-85